sensor_id;sensor_type;location;lat;lon;timestamp;P1;durP1;ratioP1;P2;durP2;ratioP2
10586;SDS011;5341;47.606;7.576;2022-12-18T00:00:04;28.27;;;20.37;;
10586;SDS011;5341;47.606;7.576;2022-12-18T00:02:39;29.20;;;20.50;;
10586;SDS011;5341;47.606;7.576;2022-12-18T00:05:07;28.93;;;21.07;;
10586;SDS011;5341;47.606;7.576;2022-12-18T00:07:38;30.73;;;21.63;;
10586;SDS011;5341;47.606;7.576;2022-12-18T00:10:06;29.60;;;21.67;;
10586;SDS011;5341;47.606;7.576;2022-12-18T00:12:35;29.25;;;21.48;;
10586;SDS011;5341;47.606;7.576;2022-12-18T00:15:04;30.60;;;21.57;;
10586;SDS011;5341;47.606;7.576;2022-12-18T00:17:33;29.57;;;22.63;;
10586;SDS011;5341;47.606;7.576;2022-12-18T00:20:03;30.63;;;22.07;;
10586;SDS011;5341;47.606;7.576;2022-12-18T00:22:49;31.73;;;22.30;;
10586;SDS011;5341;47.606;7.576;2022-12-18T00:25:17;31.17;;;22.40;;
10586;SDS011;5341;47.606;7.576;2022-12-18T00:27:46;30.90;;;23.20;;
10586;SDS011;5341;47.606;7.576;2022-12-18T00:30:14;31.50;;;22.97;;
10586;SDS011;5341;47.606;7.576;2022-12-18T00:32:45;31.90;;;23.37;;
10586;SDS011;5341;47.606;7.576;2022-12-18T00:35:17;30.27;;;22.93;;
10586;SDS011;5341;47.606;7.576;2022-12-18T00:37:46;31.13;;;23.17;;
10586;SDS011;5341;47.606;7.576;2022-12-18T00:42:54;31.80;;;23.27;;
10586;SDS011;5341;47.606;7.576;2022-12-18T00:45:25;29.58;;;21.30;;
10586;SDS011;5341;47.606;7.576;2022-12-18T00:48:05;29.83;;;22.03;;
10586;SDS011;5341;47.606;7.576;2022-12-18T00:50:36;30.47;;;22.50;;
10586;SDS011;5341;47.606;7.576;2022-12-18T00:53:07;31.03;;;23.53;;
10586;SDS011;5341;47.606;7.576;2022-12-18T00:55:46;31.67;;;23.50;;
10586;SDS011;5341;47.606;7.576;2022-12-18T00:58:24;29.50;;;22.20;;
10586;SDS011;5341;47.606;7.576;2022-12-18T01:01:11;31.70;;;22.90;;
10586;SDS011;5341;47.606;7.576;2022-12-18T01:03:59;30.37;;;21.93;;
10586;SDS011;5341;47.606;7.576;2022-12-18T01:06:51;29.87;;;22.10;;
10586;SDS011;5341;47.606;7.576;2022-12-18T01:09:37;29.17;;;21.30;;
10586;SDS011;5341;47.606;7.576;2022-12-18T01:12:12;30.07;;;22.30;;
10586;SDS011;5341;47.606;7.576;2022-12-18T01:14:59;31.07;;;22.93;;
10586;SDS011;5341;47.606;7.576;2022-12-18T01:17:27;30.57;;;22.97;;
10586;SDS011;5341;47.606;7.576;2022-12-18T01:19:57;31.40;;;23.90;;
10586;SDS011;5341;47.606;7.576;2022-12-18T01:22:26;35.15;;;23.80;;
10586;SDS011;5341;47.606;7.576;2022-12-18T01:25:21;28.95;;;21.85;;
10586;SDS011;5341;47.606;7.576;2022-12-18T01:27:51;29.97;;;22.27;;
10586;SDS011;5341;47.606;7.576;2022-12-18T01:30:21;31.50;;;22.90;;
10586;SDS011;5341;47.606;7.576;2022-12-18T01:32:56;32.57;;;22.43;;
10586;SDS011;5341;47.606;7.576;2022-12-18T01:35:26;30.67;;;22.60;;
10586;SDS011;5341;47.606;7.576;2022-12-18T01:37:56;27.57;;;20.03;;
10586;SDS011;5341;47.606;7.576;2022-12-18T01:40:24;29.40;;;20.30;;
10586;SDS011;5341;47.606;7.576;2022-12-18T01:42:53;29.93;;;21.03;;
10586;SDS011;5341;47.606;7.576;2022-12-18T01:45:33;24.90;;;18.13;;
10586;SDS011;5341;47.606;7.576;2022-12-18T01:48:27;27.17;;;18.77;;
10586;SDS011;5341;47.606;7.576;2022-12-18T01:51:00;26.38;;;17.10;;
10586;SDS011;5341;47.606;7.576;2022-12-18T01:53:31;28.42;;;18.30;;
10586;SDS011;5341;47.606;7.576;2022-12-18T01:56:00;26.77;;;17.30;;
10586;SDS011;5341;47.606;7.576;2022-12-18T01:58:30;27.35;;;18.48;;
10586;SDS011;5341;47.606;7.576;2022-12-18T02:01:10;26.00;;;17.35;;
10586;SDS011;5341;47.606;7.576;2022-12-18T02:03:40;23.90;;;16.50;;
10586;SDS011;5341;47.606;7.576;2022-12-18T02:06:12;26.05;;;17.13;;
10586;SDS011;5341;47.606;7.576;2022-12-18T02:08:57;28.45;;;17.65;;
10586;SDS011;5341;47.606;7.576;2022-12-18T02:11:37;27.10;;;17.50;;
10586;SDS011;5341;47.606;7.576;2022-12-18T02:14:16;25.40;;;16.50;;
10586;SDS011;5341;47.606;7.576;2022-12-18T02:16:51;27.08;;;17.40;;
10586;SDS011;5341;47.606;7.576;2022-12-18T02:19:35;27.85;;;17.25;;
10586;SDS011;5341;47.606;7.576;2022-12-18T02:22:26;25.77;;;16.93;;
10586;SDS011;5341;47.606;7.576;2022-12-18T02:27:59;26.10;;;16.48;;
10586;SDS011;5341;47.606;7.576;2022-12-18T02:30:50;26.90;;;16.95;;
10586;SDS011;5341;47.606;7.576;2022-12-18T02:33:49;26.25;;;17.42;;
10586;SDS011;5341;47.606;7.576;2022-12-18T02:37:21;29.52;;;17.77;;
10586;SDS011;5341;47.606;7.576;2022-12-18T02:39:57;30.13;;;17.33;;
10586;SDS011;5341;47.606;7.576;2022-12-18T02:42:28;28.55;;;17.13;;
10586;SDS011;5341;47.606;7.576;2022-12-18T02:48:13;28.85;;;17.13;;
10586;SDS011;5341;47.606;7.576;2022-12-18T02:50:50;26.50;;;17.97;;
10586;SDS011;5341;47.606;7.576;2022-12-18T02:53:42;27.88;;;17.05;;
10586;SDS011;5341;47.606;7.576;2022-12-18T02:59:19;31.03;;;17.67;;
10586;SDS011;5341;47.606;7.576;2022-12-18T03:02:02;26.08;;;16.95;;
10586;SDS011;5341;47.606;7.576;2022-12-18T03:04:42;30.17;;;19.10;;
10586;SDS011;5341;47.606;7.576;2022-12-18T03:07:18;27.50;;;16.80;;
10586;SDS011;5341;47.606;7.576;2022-12-18T03:09:55;28.83;;;18.13;;
10586;SDS011;5341;47.606;7.576;2022-12-18T03:12:30;30.52;;;17.55;;
10586;SDS011;5341;47.606;7.576;2022-12-18T03:15:21;27.75;;;16.77;;
10586;SDS011;5341;47.606;7.576;2022-12-18T03:18:04;27.93;;;17.23;;
10586;SDS011;5341;47.606;7.576;2022-12-18T03:20:40;26.75;;;16.85;;
10586;SDS011;5341;47.606;7.576;2022-12-18T03:23:18;28.07;;;18.23;;
10586;SDS011;5341;47.606;7.576;2022-12-18T03:25:51;27.63;;;16.87;;
10586;SDS011;5341;47.606;7.576;2022-12-18T03:28:25;31.50;;;18.03;;
10586;SDS011;5341;47.606;7.576;2022-12-18T03:31:07;28.50;;;18.17;;
10586;SDS011;5341;47.606;7.576;2022-12-18T03:36:36;31.40;;;17.77;;
10586;SDS011;5341;47.606;7.576;2022-12-18T03:39:19;31.93;;;17.80;;
10586;SDS011;5341;47.606;7.576;2022-12-18T03:41:57;27.93;;;17.80;;
10586;SDS011;5341;47.606;7.576;2022-12-18T03:44:44;32.07;;;18.40;;
10586;SDS011;5341;47.606;7.576;2022-12-18T03:47:21;30.43;;;17.47;;
10586;SDS011;5341;47.606;7.576;2022-12-18T03:50:12;28.90;;;18.53;;
10586;SDS011;5341;47.606;7.576;2022-12-18T03:52:49;32.30;;;18.03;;
10586;SDS011;5341;47.606;7.576;2022-12-18T03:55:22;30.33;;;18.67;;
10586;SDS011;5341;47.606;7.576;2022-12-18T03:58:02;31.97;;;18.57;;
10586;SDS011;5341;47.606;7.576;2022-12-18T04:00:50;29.48;;;17.65;;
10586;SDS011;5341;47.606;7.576;2022-12-18T04:03:28;31.30;;;18.37;;
10586;SDS011;5341;47.606;7.576;2022-12-18T04:06:01;31.50;;;18.77;;
10586;SDS011;5341;47.606;7.576;2022-12-18T04:08:33;30.43;;;17.87;;
10586;SDS011;5341;47.606;7.576;2022-12-18T04:11:07;30.13;;;17.70;;
10586;SDS011;5341;47.606;7.576;2022-12-18T04:13:36;31.57;;;18.70;;
10586;SDS011;5341;47.606;7.576;2022-12-18T04:16:11;28.10;;;17.27;;
10586;SDS011;5341;47.606;7.576;2022-12-18T04:18:42;31.53;;;18.57;;
10586;SDS011;5341;47.606;7.576;2022-12-18T04:21:14;29.80;;;17.70;;
10586;SDS011;5341;47.606;7.576;2022-12-18T04:23:42;30.27;;;17.83;;
10586;SDS011;5341;47.606;7.576;2022-12-18T04:26:12;30.03;;;17.93;;
10586;SDS011;5341;47.606;7.576;2022-12-18T04:29:02;27.00;;;17.03;;
10586;SDS011;5341;47.606;7.576;2022-12-18T04:31:32;28.83;;;17.53;;
10586;SDS011;5341;47.606;7.576;2022-12-18T04:34:02;27.13;;;17.50;;
10586;SDS011;5341;47.606;7.576;2022-12-18T04:36:48;26.27;;;17.33;;
10586;SDS011;5341;47.606;7.576;2022-12-18T04:41:55;30.17;;;17.70;;
10586;SDS011;5341;47.606;7.576;2022-12-18T04:44:24;30.90;;;17.40;;
10586;SDS011;5341;47.606;7.576;2022-12-18T04:46:53;27.63;;;16.33;;
10586;SDS011;5341;47.606;7.576;2022-12-18T04:49:22;27.30;;;16.90;;
10586;SDS011;5341;47.606;7.576;2022-12-18T04:51:56;27.90;;;17.03;;
10586;SDS011;5341;47.606;7.576;2022-12-18T04:54:23;24.57;;;16.03;;
10586;SDS011;5341;47.606;7.576;2022-12-18T04:56:53;27.03;;;17.17;;
10586;SDS011;5341;47.606;7.576;2022-12-18T04:59:23;29.40;;;17.20;;
10586;SDS011;5341;47.606;7.576;2022-12-18T05:01:55;25.97;;;16.60;;
10586;SDS011;5341;47.606;7.576;2022-12-18T05:04:26;28.13;;;17.07;;
10586;SDS011;5341;47.606;7.576;2022-12-18T05:07:11;28.57;;;16.77;;
10586;SDS011;5341;47.606;7.576;2022-12-18T05:09:44;27.70;;;16.77;;
10586;SDS011;5341;47.606;7.576;2022-12-18T05:14:52;29.27;;;17.87;;
10586;SDS011;5341;47.606;7.576;2022-12-18T05:17:25;28.43;;;16.57;;
10586;SDS011;5341;47.606;7.576;2022-12-18T05:19:54;29.13;;;17.73;;
10586;SDS011;5341;47.606;7.576;2022-12-18T05:25:15;31.70;;;17.63;;
10586;SDS011;5341;47.606;7.576;2022-12-18T05:27:47;28.53;;;17.33;;
10586;SDS011;5341;47.606;7.576;2022-12-18T05:30:15;28.83;;;17.67;;
10586;SDS011;5341;47.606;7.576;2022-12-18T05:32:44;29.40;;;17.40;;
10586;SDS011;5341;47.606;7.576;2022-12-18T05:35:14;30.00;;;17.93;;
10586;SDS011;5341;47.606;7.576;2022-12-18T05:37:52;27.87;;;17.10;;
10586;SDS011;5341;47.606;7.576;2022-12-18T05:40:41;29.57;;;18.00;;
10586;SDS011;5341;47.606;7.576;2022-12-18T05:43:13;30.20;;;17.70;;
10586;SDS011;5341;47.606;7.576;2022-12-18T05:45:45;30.07;;;18.33;;
10586;SDS011;5341;47.606;7.576;2022-12-18T05:48:20;28.73;;;17.97;;
10586;SDS011;5341;47.606;7.576;2022-12-18T05:51:13;27.97;;;16.87;;
10586;SDS011;5341;47.606;7.576;2022-12-18T05:53:46;28.90;;;17.77;;
10586;SDS011;5341;47.606;7.576;2022-12-18T05:56:18;28.33;;;17.80;;
10586;SDS011;5341;47.606;7.576;2022-12-18T05:58:54;29.80;;;17.67;;
10586;SDS011;5341;47.606;7.576;2022-12-18T06:01:25;29.77;;;17.77;;
10586;SDS011;5341;47.606;7.576;2022-12-18T06:04:01;31.40;;;18.13;;
10586;SDS011;5341;47.606;7.576;2022-12-18T06:06:33;30.67;;;17.57;;
10586;SDS011;5341;47.606;7.576;2022-12-18T06:15:06;28.83;;;17.23;;
10586;SDS011;5341;47.606;7.576;2022-12-18T06:20:36;30.20;;;17.60;;
10586;SDS011;5341;47.606;7.576;2022-12-18T06:23:27;26.27;;;16.37;;
10586;SDS011;5341;47.606;7.576;2022-12-18T06:25:58;27.50;;;16.60;;
10586;SDS011;5341;47.606;7.576;2022-12-18T06:28:36;30.00;;;17.77;;
10586;SDS011;5341;47.606;7.576;2022-12-18T06:31:20;28.63;;;16.70;;
10586;SDS011;5341;47.606;7.576;2022-12-18T06:33:49;28.00;;;16.83;;
10586;SDS011;5341;47.606;7.576;2022-12-18T06:36:19;30.13;;;17.90;;
10586;SDS011;5341;47.606;7.576;2022-12-18T06:38:50;30.70;;;17.40;;
10586;SDS011;5341;47.606;7.576;2022-12-18T06:41:26;29.77;;;17.70;;
10586;SDS011;5341;47.606;7.576;2022-12-18T06:43:54;30.80;;;18.70;;
10586;SDS011;5341;47.606;7.576;2022-12-18T06:46:28;32.73;;;18.63;;
10586;SDS011;5341;47.606;7.576;2022-12-18T06:48:57;30.03;;;17.10;;
10586;SDS011;5341;47.606;7.576;2022-12-18T06:51:38;29.87;;;17.27;;
10586;SDS011;5341;47.606;7.576;2022-12-18T06:54:09;29.90;;;18.07;;
10586;SDS011;5341;47.606;7.576;2022-12-18T06:56:44;33.37;;;18.73;;
10586;SDS011;5341;47.606;7.576;2022-12-18T06:59:13;29.60;;;17.80;;
10586;SDS011;5341;47.606;7.576;2022-12-18T07:01:43;31.10;;;18.67;;
10586;SDS011;5341;47.606;7.576;2022-12-18T07:04:20;28.70;;;17.50;;
10586;SDS011;5341;47.606;7.576;2022-12-18T07:07:01;29.40;;;18.40;;
10586;SDS011;5341;47.606;7.576;2022-12-18T07:09:31;29.70;;;18.03;;
10586;SDS011;5341;47.606;7.576;2022-12-18T07:12:02;32.70;;;19.40;;
10586;SDS011;5341;47.606;7.576;2022-12-18T07:14:38;28.40;;;17.93;;
10586;SDS011;5341;47.606;7.576;2022-12-18T07:17:11;28.70;;;17.67;;
10586;SDS011;5341;47.606;7.576;2022-12-18T07:19:41;33.07;;;18.73;;
10586;SDS011;5341;47.606;7.576;2022-12-18T07:25:04;34.83;;;19.67;;
10586;SDS011;5341;47.606;7.576;2022-12-18T07:27:38;33.73;;;20.67;;
10586;SDS011;5341;47.606;7.576;2022-12-18T07:30:09;38.40;;;22.73;;
10586;SDS011;5341;47.606;7.576;2022-12-18T07:32:44;38.33;;;23.27;;
10586;SDS011;5341;47.606;7.576;2022-12-18T07:35:14;43.73;;;26.33;;
10586;SDS011;5341;47.606;7.576;2022-12-18T07:37:47;45.53;;;25.33;;
10586;SDS011;5341;47.606;7.576;2022-12-18T07:40:30;42.27;;;25.00;;
10586;SDS011;5341;47.606;7.576;2022-12-18T07:43:00;40.57;;;23.67;;
10586;SDS011;5341;47.606;7.576;2022-12-18T07:45:30;41.43;;;23.80;;
10586;SDS011;5341;47.606;7.576;2022-12-18T07:47:58;43.00;;;24.77;;
10586;SDS011;5341;47.606;7.576;2022-12-18T07:50:58;42.17;;;22.97;;
10586;SDS011;5341;47.606;7.576;2022-12-18T07:56:27;39.23;;;22.60;;
10586;SDS011;5341;47.606;7.576;2022-12-18T07:59:14;44.53;;;24.00;;
10586;SDS011;5341;47.606;7.576;2022-12-18T08:01:45;41.17;;;22.63;;
10586;SDS011;5341;47.606;7.576;2022-12-18T08:04:37;42.30;;;23.33;;
10586;SDS011;5341;47.606;7.576;2022-12-18T08:07:20;43.10;;;23.53;;
10586;SDS011;5341;47.606;7.576;2022-12-18T08:09:51;39.03;;;22.47;;
10586;SDS011;5341;47.606;7.576;2022-12-18T08:12:20;42.83;;;23.03;;
10586;SDS011;5341;47.606;7.576;2022-12-18T08:14:51;41.23;;;23.17;;
10586;SDS011;5341;47.606;7.576;2022-12-18T08:17:50;44.07;;;22.70;;
10586;SDS011;5341;47.606;7.576;2022-12-18T08:20:41;38.87;;;20.80;;
10586;SDS011;5341;47.606;7.576;2022-12-18T08:23:18;41.50;;;22.30;;
10586;SDS011;5341;47.606;7.576;2022-12-18T08:25:51;41.33;;;22.07;;
10586;SDS011;5341;47.606;7.576;2022-12-18T08:28:21;37.67;;;21.43;;
10586;SDS011;5341;47.606;7.576;2022-12-18T08:30:53;44.67;;;23.83;;
10586;SDS011;5341;47.606;7.576;2022-12-18T08:33:25;42.23;;;22.77;;
10586;SDS011;5341;47.606;7.576;2022-12-18T08:35:58;43.50;;;22.83;;
10586;SDS011;5341;47.606;7.576;2022-12-18T08:38:28;42.60;;;22.93;;
10586;SDS011;5341;47.606;7.576;2022-12-18T08:40:58;42.60;;;22.73;;
10586;SDS011;5341;47.606;7.576;2022-12-18T08:43:33;41.60;;;23.50;;
10586;SDS011;5341;47.606;7.576;2022-12-18T08:46:21;41.93;;;23.10;;
10586;SDS011;5341;47.606;7.576;2022-12-18T08:48:52;45.80;;;24.27;;
10586;SDS011;5341;47.606;7.576;2022-12-18T08:51:23;44.93;;;23.83;;
10586;SDS011;5341;47.606;7.576;2022-12-18T08:54:04;43.37;;;24.37;;
10586;SDS011;5341;47.606;7.576;2022-12-18T08:56:37;42.63;;;22.90;;
10586;SDS011;5341;47.606;7.576;2022-12-18T08:59:08;43.07;;;24.57;;
10586;SDS011;5341;47.606;7.576;2022-12-18T09:01:42;41.07;;;23.20;;
10586;SDS011;5341;47.606;7.576;2022-12-18T09:04:12;41.83;;;23.63;;
10586;SDS011;5341;47.606;7.576;2022-12-18T09:06:52;36.40;;;21.93;;
10586;SDS011;5341;47.606;7.576;2022-12-18T09:09:28;41.73;;;23.80;;
10586;SDS011;5341;47.606;7.576;2022-12-18T09:12:27;37.30;;;21.80;;
10586;SDS011;5341;47.606;7.576;2022-12-18T09:14:56;37.83;;;21.33;;
10586;SDS011;5341;47.606;7.576;2022-12-18T09:17:28;39.53;;;21.73;;
10586;SDS011;5341;47.606;7.576;2022-12-18T09:20:17;39.57;;;22.17;;
10586;SDS011;5341;47.606;7.576;2022-12-18T09:26:04;36.37;;;21.57;;
10586;SDS011;5341;47.606;7.576;2022-12-18T09:29:08;35.10;;;21.53;;
10586;SDS011;5341;47.606;7.576;2022-12-18T09:34:54;35.37;;;20.67;;
10586;SDS011;5341;47.606;7.576;2022-12-18T09:37:34;37.37;;;21.17;;
10586;SDS011;5341;47.606;7.576;2022-12-18T09:42:34;36.00;;;23.10;;
10586;SDS011;5341;47.606;7.576;2022-12-18T09:45:07;37.33;;;23.30;;
10586;SDS011;5341;47.606;7.576;2022-12-18T09:47:42;42.27;;;24.73;;
10586;SDS011;5341;47.606;7.576;2022-12-18T09:50:24;40.63;;;25.17;;
10586;SDS011;5341;47.606;7.576;2022-12-18T09:52:59;45.63;;;26.57;;
10586;SDS011;5341;47.606;7.576;2022-12-18T09:55:34;45.78;;;26.92;;
10586;SDS011;5341;47.606;7.576;2022-12-18T09:58:20;47.37;;;27.17;;
10586;SDS011;5341;47.606;7.576;2022-12-18T10:00:55;48.33;;;27.53;;
10586;SDS011;5341;47.606;7.576;2022-12-18T10:03:23;41.58;;;24.70;;
10586;SDS011;5341;47.606;7.576;2022-12-18T10:05:56;45.17;;;26.63;;
10586;SDS011;5341;47.606;7.576;2022-12-18T10:08:32;50.30;;;28.73;;
10586;SDS011;5341;47.606;7.576;2022-12-18T10:11:21;39.55;;;24.80;;
10586;SDS011;5341;47.606;7.576;2022-12-18T10:14:13;36.70;;;22.63;;
10586;SDS011;5341;47.606;7.576;2022-12-18T10:17:07;37.67;;;23.45;;
10586;SDS011;5341;47.606;7.576;2022-12-18T10:19:54;35.60;;;21.60;;
10586;SDS011;5341;47.606;7.576;2022-12-18T10:22:38;32.92;;;21.00;;
10586;SDS011;5341;47.606;7.576;2022-12-18T10:25:16;32.13;;;21.83;;
10586;SDS011;5341;47.606;7.576;2022-12-18T10:27:51;33.30;;;20.42;;
10586;SDS011;5341;47.606;7.576;2022-12-18T10:30:23;29.05;;;19.33;;
10586;SDS011;5341;47.606;7.576;2022-12-18T10:33:03;30.27;;;19.95;;
10586;SDS011;5341;47.606;7.576;2022-12-18T10:35:47;29.35;;;20.23;;
10586;SDS011;5341;47.606;7.576;2022-12-18T10:38:31;30.48;;;20.25;;
10586;SDS011;5341;47.606;7.576;2022-12-18T10:41:05;30.60;;;20.73;;
10586;SDS011;5341;47.606;7.576;2022-12-18T10:47:15;35.53;;;21.08;;
10586;SDS011;5341;47.606;7.576;2022-12-18T10:50:02;29.10;;;20.00;;
10586;SDS011;5341;47.606;7.576;2022-12-18T10:55:13;32.60;;;21.13;;
10586;SDS011;5341;47.606;7.576;2022-12-18T10:57:55;30.88;;;20.80;;
10586;SDS011;5341;47.606;7.576;2022-12-18T11:01:07;30.13;;;20.20;;
10586;SDS011;5341;47.606;7.576;2022-12-18T11:03:58;30.77;;;20.42;;
10586;SDS011;5341;47.606;7.576;2022-12-18T11:06:52;31.60;;;21.08;;
10586;SDS011;5341;47.606;7.576;2022-12-18T11:09:59;34.95;;;21.50;;
10586;SDS011;5341;47.606;7.576;2022-12-18T11:12:59;28.92;;;19.50;;
10586;SDS011;5341;47.606;7.576;2022-12-18T11:15:44;29.27;;;20.40;;
10586;SDS011;5341;47.606;7.576;2022-12-18T11:18:20;28.70;;;19.45;;
10586;SDS011;5341;47.606;7.576;2022-12-18T11:20:54;29.90;;;20.00;;
10586;SDS011;5341;47.606;7.576;2022-12-18T11:23:30;28.90;;;19.67;;
10586;SDS011;5341;47.606;7.576;2022-12-18T11:25:59;28.27;;;19.15;;
10586;SDS011;5341;47.606;7.576;2022-12-18T11:28:37;28.65;;;19.30;;
10586;SDS011;5341;47.606;7.576;2022-12-18T11:33:39;29.90;;;20.40;;
10586;SDS011;5341;47.606;7.576;2022-12-18T11:42:01;30.25;;;18.70;;
10586;SDS011;5341;47.606;7.576;2022-12-18T11:50:24;31.10;;;19.83;;
10586;SDS011;5341;47.606;7.576;2022-12-18T11:56:21;29.55;;;20.25;;
10586;SDS011;5341;47.606;7.576;2022-12-18T12:02:03;29.95;;;19.80;;
10586;SDS011;5341;47.606;7.576;2022-12-18T12:05:05;28.85;;;19.63;;
10586;SDS011;5341;47.606;7.576;2022-12-18T12:08:03;29.35;;;19.58;;
10586;SDS011;5341;47.606;7.576;2022-12-18T12:10:41;28.33;;;18.88;;
10586;SDS011;5341;47.606;7.576;2022-12-18T12:13:48;31.10;;;19.35;;
10586;SDS011;5341;47.606;7.576;2022-12-18T12:20:34;32.20;;;21.42;;
10586;SDS011;5341;47.606;7.576;2022-12-18T12:23:28;29.58;;;19.33;;
10586;SDS011;5341;47.606;7.576;2022-12-18T12:26:13;31.08;;;20.80;;
10586;SDS011;5341;47.606;7.576;2022-12-18T12:29:09;31.55;;;19.70;;
10586;SDS011;5341;47.606;7.576;2022-12-18T12:31:56;31.05;;;20.50;;
10586;SDS011;5341;47.606;7.576;2022-12-18T12:34:48;31.05;;;20.70;;
10586;SDS011;5341;47.606;7.576;2022-12-18T12:37:32;32.47;;;20.60;;
10586;SDS011;5341;47.606;7.576;2022-12-18T12:40:12;29.40;;;19.98;;
10586;SDS011;5341;47.606;7.576;2022-12-18T12:42:52;30.35;;;19.92;;
10586;SDS011;5341;47.606;7.576;2022-12-18T12:45:41;31.25;;;20.38;;
10586;SDS011;5341;47.606;7.576;2022-12-18T12:48:20;27.15;;;19.33;;
10586;SDS011;5341;47.606;7.576;2022-12-18T12:50:59;30.08;;;19.45;;
10586;SDS011;5341;47.606;7.576;2022-12-18T12:53:55;28.85;;;19.85;;
10586;SDS011;5341;47.606;7.576;2022-12-18T12:59:21;30.50;;;20.45;;
10586;SDS011;5341;47.606;7.576;2022-12-18T13:01:59;30.08;;;19.73;;
10586;SDS011;5341;47.606;7.576;2022-12-18T13:04:36;29.77;;;20.13;;
10586;SDS011;5341;47.606;7.576;2022-12-18T13:07:15;29.38;;;20.63;;
10586;SDS011;5341;47.606;7.576;2022-12-18T13:13:07;30.50;;;19.83;;
10586;SDS011;5341;47.606;7.576;2022-12-18T13:15:39;28.30;;;18.27;;
10586;SDS011;5341;47.606;7.576;2022-12-18T13:18:30;25.77;;;18.80;;
10586;SDS011;5341;47.606;7.576;2022-12-18T13:21:07;30.42;;;20.88;;
10586;SDS011;5341;47.606;7.576;2022-12-18T13:23:56;29.38;;;19.25;;
10586;SDS011;5341;47.606;7.576;2022-12-18T13:26:48;28.95;;;19.50;;
10586;SDS011;5341;47.606;7.576;2022-12-18T13:32:20;27.98;;;19.27;;
10586;SDS011;5341;47.606;7.576;2022-12-18T13:37:54;29.13;;;20.33;;
10586;SDS011;5341;47.606;7.576;2022-12-18T13:43:35;29.55;;;20.10;;
10586;SDS011;5341;47.606;7.576;2022-12-18T13:46:23;32.53;;;21.05;;
10586;SDS011;5341;47.606;7.576;2022-12-18T13:49:00;30.67;;;20.75;;
10586;SDS011;5341;47.606;7.576;2022-12-18T13:51:34;30.00;;;19.30;;
10586;SDS011;5341;47.606;7.576;2022-12-18T13:54:13;27.83;;;19.88;;
10586;SDS011;5341;47.606;7.576;2022-12-18T13:56:59;28.40;;;18.73;;
10586;SDS011;5341;47.606;7.576;2022-12-18T13:59:35;28.42;;;18.40;;
10586;SDS011;5341;47.606;7.576;2022-12-18T14:02:12;29.20;;;20.02;;
10586;SDS011;5341;47.606;7.576;2022-12-18T14:04:55;26.15;;;17.88;;
10586;SDS011;5341;47.606;7.576;2022-12-18T14:07:24;28.75;;;19.85;;
10586;SDS011;5341;47.606;7.576;2022-12-18T14:09:59;28.73;;;19.48;;
10586;SDS011;5341;47.606;7.576;2022-12-18T14:12:31;30.15;;;19.95;;
10586;SDS011;5341;47.606;7.576;2022-12-18T14:20:56;27.60;;;19.55;;
10586;SDS011;5341;47.606;7.576;2022-12-18T14:23:31;30.02;;;20.55;;
10586;SDS011;5341;47.606;7.576;2022-12-18T14:26:19;27.08;;;18.50;;
10586;SDS011;5341;47.606;7.576;2022-12-18T14:28:57;25.88;;;17.95;;
10586;SDS011;5341;47.606;7.576;2022-12-18T14:31:37;26.63;;;18.15;;
10586;SDS011;5341;47.606;7.576;2022-12-18T14:34:26;26.58;;;17.70;;
10586;SDS011;5341;47.606;7.576;2022-12-18T14:36:58;27.40;;;18.30;;
10586;SDS011;5341;47.606;7.576;2022-12-18T14:39:37;28.05;;;18.63;;
10586;SDS011;5341;47.606;7.576;2022-12-18T14:42:10;27.40;;;18.45;;
10586;SDS011;5341;47.606;7.576;2022-12-18T14:44:47;27.08;;;18.10;;
10586;SDS011;5341;47.606;7.576;2022-12-18T14:47:18;27.25;;;18.42;;
10586;SDS011;5341;47.606;7.576;2022-12-18T14:49:54;25.00;;;18.40;;
10586;SDS011;5341;47.606;7.576;2022-12-18T14:52:27;29.48;;;18.10;;
10586;SDS011;5341;47.606;7.576;2022-12-18T14:55:00;28.13;;;18.70;;
10586;SDS011;5341;47.606;7.576;2022-12-18T14:57:34;25.10;;;17.90;;
10586;SDS011;5341;47.606;7.576;2022-12-18T15:00:11;27.20;;;17.15;;
10586;SDS011;5341;47.606;7.576;2022-12-18T15:02:54;25.85;;;17.33;;
10586;SDS011;5341;47.606;7.576;2022-12-18T15:05:39;23.80;;;17.15;;
10586;SDS011;5341;47.606;7.576;2022-12-18T15:14:28;24.42;;;17.13;;
10586;SDS011;5341;47.606;7.576;2022-12-18T15:17:06;25.75;;;18.05;;
10586;SDS011;5341;47.606;7.576;2022-12-18T15:19:50;27.20;;;17.92;;
10586;SDS011;5341;47.606;7.576;2022-12-18T15:22:35;28.73;;;19.38;;
10586;SDS011;5341;47.606;7.576;2022-12-18T15:25:22;27.25;;;18.52;;
10586;SDS011;5341;47.606;7.576;2022-12-18T15:28:12;29.40;;;18.75;;
10586;SDS011;5341;47.606;7.576;2022-12-18T15:31:05;27.40;;;18.42;;
10586;SDS011;5341;47.606;7.576;2022-12-18T15:34:13;31.10;;;20.70;;
10586;SDS011;5341;47.606;7.576;2022-12-18T15:36:53;27.83;;;19.65;;
10586;SDS011;5341;47.606;7.576;2022-12-18T15:39:27;32.05;;;19.67;;
10586;SDS011;5341;47.606;7.576;2022-12-18T15:41:58;28.48;;;18.92;;
10586;SDS011;5341;47.606;7.576;2022-12-18T15:44:47;27.20;;;18.23;;
10586;SDS011;5341;47.606;7.576;2022-12-18T15:47:18;30.65;;;18.80;;
10586;SDS011;5341;47.606;7.576;2022-12-18T15:49:46;29.58;;;19.42;;
10586;SDS011;5341;47.606;7.576;2022-12-18T15:52:25;27.10;;;18.42;;
10586;SDS011;5341;47.606;7.576;2022-12-18T15:54:55;27.35;;;18.58;;
10586;SDS011;5341;47.606;7.576;2022-12-18T15:57:41;28.58;;;19.55;;
10586;SDS011;5341;47.606;7.576;2022-12-18T16:00:11;28.55;;;19.83;;
10586;SDS011;5341;47.606;7.576;2022-12-18T16:02:42;27.15;;;18.17;;
10586;SDS011;5341;47.606;7.576;2022-12-18T16:05:14;29.08;;;19.35;;
10586;SDS011;5341;47.606;7.576;2022-12-18T16:07:48;26.05;;;18.58;;
10586;SDS011;5341;47.606;7.576;2022-12-18T16:10:18;27.08;;;18.60;;
10586;SDS011;5341;47.606;7.576;2022-12-18T16:12:47;25.15;;;17.77;;
10586;SDS011;5341;47.606;7.576;2022-12-18T16:15:16;27.33;;;18.02;;
10586;SDS011;5341;47.606;7.576;2022-12-18T16:17:50;27.45;;;17.35;;
10586;SDS011;5341;47.606;7.576;2022-12-18T16:20:19;24.80;;;17.52;;
10586;SDS011;5341;47.606;7.576;2022-12-18T16:22:52;24.85;;;17.58;;
10586;SDS011;5341;47.606;7.576;2022-12-18T16:25:25;25.23;;;17.55;;
10586;SDS011;5341;47.606;7.576;2022-12-18T16:27:55;25.83;;;17.58;;
10586;SDS011;5341;47.606;7.576;2022-12-18T16:30:27;26.88;;;17.35;;
10586;SDS011;5341;47.606;7.576;2022-12-18T16:32:59;25.98;;;18.23;;
10586;SDS011;5341;47.606;7.576;2022-12-18T16:35:28;26.17;;;17.90;;
10586;SDS011;5341;47.606;7.576;2022-12-18T16:38:05;27.55;;;18.63;;
10586;SDS011;5341;47.606;7.576;2022-12-18T16:40:35;27.70;;;18.17;;
10586;SDS011;5341;47.606;7.576;2022-12-18T16:43:30;25.40;;;17.35;;
10586;SDS011;5341;47.606;7.576;2022-12-18T16:45:58;27.00;;;18.13;;
10586;SDS011;5341;47.606;7.576;2022-12-18T16:48:28;25.92;;;17.67;;
10586;SDS011;5341;47.606;7.576;2022-12-18T16:50:59;26.98;;;18.15;;
10586;SDS011;5341;47.606;7.576;2022-12-18T16:53:42;25.52;;;17.52;;
10586;SDS011;5341;47.606;7.576;2022-12-18T16:56:15;25.98;;;17.02;;
10586;SDS011;5341;47.606;7.576;2022-12-18T16:59:09;25.80;;;18.13;;
10586;SDS011;5341;47.606;7.576;2022-12-18T17:01:39;25.00;;;17.63;;
10586;SDS011;5341;47.606;7.576;2022-12-18T17:04:09;25.70;;;16.85;;
10586;SDS011;5341;47.606;7.576;2022-12-18T17:06:51;27.05;;;18.60;;
10586;SDS011;5341;47.606;7.576;2022-12-18T17:09:45;27.58;;;17.80;;
10586;SDS011;5341;47.606;7.576;2022-12-18T17:12:18;25.65;;;17.77;;
10586;SDS011;5341;47.606;7.576;2022-12-18T17:14:50;26.88;;;18.08;;
10586;SDS011;5341;47.606;7.576;2022-12-18T17:17:18;28.42;;;18.83;;